sensor_id;sensor_type;location;lat;lon;timestamp;temperature;humidity
5743;DHT22;2896;53.500;10.020;2024-02-26T00:00:18;2.70;99.90
5743;DHT22;2896;53.500;10.020;2024-02-26T00:02:44;2.60;99.90
5743;DHT22;2896;53.500;10.020;2024-02-26T00:05:12;2.50;99.90
5743;DHT22;2896;53.500;10.020;2024-02-26T00:07:39;2.50;99.90
5743;DHT22;2896;53.500;10.020;2024-02-26T00:10:07;2.50;99.90
5743;DHT22;2896;53.500;10.020;2024-02-26T00:12:33;2.50;99.90
5743;DHT22;2896;53.500;10.020;2024-02-26T00:15:00;2.40;99.90
5743;DHT22;2896;53.500;10.020;2024-02-26T00:17:27;2.40;99.90
5743;DHT22;2896;53.500;10.020;2024-02-26T00:19:53;2.30;99.90
5743;DHT22;2896;53.500;10.020;2024-02-26T00:22:21;2.20;99.90
5743;DHT22;2896;53.500;10.020;2024-02-26T00:24:48;2.20;99.90
5743;DHT22;2896;53.500;10.020;2024-02-26T00:27:15;2.10;99.90
5743;DHT22;2896;53.500;10.020;2024-02-26T00:32:08;2.00;99.90
5743;DHT22;2896;53.500;10.020;2024-02-26T00:34:35;2.00;99.90
5743;DHT22;2896;53.500;10.020;2024-02-26T00:37:02;2.00;99.90
5743;DHT22;2896;53.500;10.020;2024-02-26T00:39:30;2.00;99.90
5743;DHT22;2896;53.500;10.020;2024-02-26T00:41:56;1.90;99.90
5743;DHT22;2896;53.500;10.020;2024-02-26T00:44:23;1.90;99.90
5743;DHT22;2896;53.500;10.020;2024-02-26T00:49:17;1.80;99.90
5743;DHT22;2896;53.500;10.020;2024-02-26T00:51:43;1.70;99.90
5743;DHT22;2896;53.500;10.020;2024-02-26T00:54:10;1.70;99.90
5743;DHT22;2896;53.500;10.020;2024-02-26T00:56:38;1.60;99.90
5743;DHT22;2896;53.500;10.020;2024-02-26T00:59:05;1.60;99.90
5743;DHT22;2896;53.500;10.020;2024-02-26T01:01:31;1.60;99.90
5743;DHT22;2896;53.500;10.020;2024-02-26T01:06:25;1.50;99.90
5743;DHT22;2896;53.500;10.020;2024-02-26T01:08:52;1.40;99.90
5743;DHT22;2896;53.500;10.020;2024-02-26T01:13:47;1.40;99.90
5743;DHT22;2896;53.500;10.020;2024-02-26T01:16:13;1.30;99.90
5743;DHT22;2896;53.500;10.020;2024-02-26T01:18:40;1.30;99.90
5743;DHT22;2896;53.500;10.020;2024-02-26T01:21:07;1.30;99.90
5743;DHT22;2896;53.500;10.020;2024-02-26T01:23:34;1.20;99.90
5743;DHT22;2896;53.500;10.020;2024-02-26T01:28:30;1.20;99.90
5743;DHT22;2896;53.500;10.020;2024-02-26T01:30:58;1.20;99.90
5743;DHT22;2896;53.500;10.020;2024-02-26T01:33:25;1.10;99.90
5743;DHT22;2896;53.500;10.020;2024-02-26T01:35:52;1.10;99.90
5743;DHT22;2896;53.500;10.020;2024-02-26T01:38:19;1.10;99.90
5743;DHT22;2896;53.500;10.020;2024-02-26T01:45:40;1.10;99.90
5743;DHT22;2896;53.500;10.020;2024-02-26T01:48:08;1.10;99.90
5743;DHT22;2896;53.500;10.020;2024-02-26T01:50:36;1.00;99.90
5743;DHT22;2896;53.500;10.020;2024-02-26T01:53:04;1.00;99.90
5743;DHT22;2896;53.500;10.020;2024-02-26T01:55:30;1.00;99.90
5743;DHT22;2896;53.500;10.020;2024-02-26T02:00:24;1.00;99.90
5743;DHT22;2896;53.500;10.020;2024-02-26T02:02:51;1.00;99.90
5743;DHT22;2896;53.500;10.020;2024-02-26T02:05:22;0.80;99.90
5743;DHT22;2896;53.500;10.020;2024-02-26T02:07:49;0.90;99.90
5743;DHT22;2896;53.500;10.020;2024-02-26T02:10:18;0.80;99.90
5743;DHT22;2896;53.500;10.020;2024-02-26T02:12:48;0.80;99.90
5743;DHT22;2896;53.500;10.020;2024-02-26T02:15:15;0.70;99.90
5743;DHT22;2896;53.500;10.020;2024-02-26T02:20:09;0.60;99.90
5743;DHT22;2896;53.500;10.020;2024-02-26T02:22:37;0.50;99.90
5743;DHT22;2896;53.500;10.020;2024-02-26T02:32:26;0.50;99.90
5743;DHT22;2896;53.500;10.020;2024-02-26T02:34:54;0.40;99.90
5743;DHT22;2896;53.500;10.020;2024-02-26T02:37:20;0.40;99.90
5743;DHT22;2896;53.500;10.020;2024-02-26T02:39:48;0.30;99.90
5743;DHT22;2896;53.500;10.020;2024-02-26T02:44:42;0.30;99.90
5743;DHT22;2896;53.500;10.020;2024-02-26T02:47:10;0.40;99.90
5743;DHT22;2896;53.500;10.020;2024-02-26T02:49:36;0.30;99.90
5743;DHT22;2896;53.500;10.020;2024-02-26T02:52:04;0.20;99.90
5743;DHT22;2896;53.500;10.020;2024-02-26T02:56:59;0.20;99.90
5743;DHT22;2896;53.500;10.020;2024-02-26T02:59:26;0.20;99.90
5743;DHT22;2896;53.500;10.020;2024-02-26T03:04:19;0.10;99.90
5743;DHT22;2896;53.500;10.020;2024-02-26T03:06:46;0.10;99.90
5743;DHT22;2896;53.500;10.020;2024-02-26T03:11:39;0.00;99.90
5743;DHT22;2896;53.500;10.020;2024-02-26T03:14:07;0.00;99.90
5743;DHT22;2896;53.500;10.020;2024-02-26T03:19:02;0.00;99.90
5743;DHT22;2896;53.500;10.020;2024-02-26T03:21:29;0.00;99.90
5743;DHT22;2896;53.500;10.020;2024-02-26T03:23:56;0.00;99.90
5743;DHT22;2896;53.500;10.020;2024-02-26T03:26:22;0.00;99.90
5743;DHT22;2896;53.500;10.020;2024-02-26T03:28:49;0.00;99.90
5743;DHT22;2896;53.500;10.020;2024-02-26T03:31:17;0.00;99.90
5743;DHT22;2896;53.500;10.020;2024-02-26T03:33:44;-0.10;99.90
5743;DHT22;2896;53.500;10.020;2024-02-26T03:36:11;-0.10;99.90
5743;DHT22;2896;53.500;10.020;2024-02-26T03:41:04;-0.10;99.90
5743;DHT22;2896;53.500;10.020;2024-02-26T03:43:31;-0.10;99.90
5743;DHT22;2896;53.500;10.020;2024-02-26T03:48:26;-0.10;99.90
5743;DHT22;2896;53.500;10.020;2024-02-26T03:50:53;-0.20;99.90
5743;DHT22;2896;53.500;10.020;2024-02-26T03:55:47;-0.20;99.90
5743;DHT22;2896;53.500;10.020;2024-02-26T04:00:42;-0.20;99.90
5743;DHT22;2896;53.500;10.020;2024-02-26T04:03:09;-0.30;99.90
5743;DHT22;2896;53.500;10.020;2024-02-26T04:05:37;-0.20;99.90
5743;DHT22;2896;53.500;10.020;2024-02-26T04:08:05;-0.30;99.90
5743;DHT22;2896;53.500;10.020;2024-02-26T04:13:03;-0.30;99.90
5743;DHT22;2896;53.500;10.020;2024-02-26T04:15:30;-0.30;99.90
5743;DHT22;2896;53.500;10.020;2024-02-26T04:22:52;-0.30;99.90
5743;DHT22;2896;53.500;10.020;2024-02-26T04:27:46;-0.40;99.90
5743;DHT22;2896;53.500;10.020;2024-02-26T04:30:13;-0.40;99.90
5743;DHT22;2896;53.500;10.020;2024-02-26T04:32:39;-0.40;99.90
5743;DHT22;2896;53.500;10.020;2024-02-26T04:37:34;-0.40;99.90
5743;DHT22;2896;53.500;10.020;2024-02-26T04:40:02;-0.40;99.90
5743;DHT22;2896;53.500;10.020;2024-02-26T04:42:30;-0.40;99.90
5743;DHT22;2896;53.500;10.020;2024-02-26T04:47:23;-0.40;99.90
5743;DHT22;2896;53.500;10.020;2024-02-26T04:49:50;-0.50;99.90
5743;DHT22;2896;53.500;10.020;2024-02-26T04:54:44;-0.50;99.90
5743;DHT22;2896;53.500;10.020;2024-02-26T04:57:12;-0.50;99.90
5743;DHT22;2896;53.500;10.020;2024-02-26T04:59:39;-0.50;99.90
5743;DHT22;2896;53.500;10.020;2024-02-26T05:07:02;-0.50;99.90
5743;DHT22;2896;53.500;10.020;2024-02-26T05:09:28;-0.50;99.90
5743;DHT22;2896;53.500;10.020;2024-02-26T05:14:24;-0.50;99.90
5743;DHT22;2896;53.500;10.020;2024-02-26T05:16:50;-0.50;99.90
5743;DHT22;2896;53.500;10.020;2024-02-26T05:19:17;-0.40;99.90
5743;DHT22;2896;53.500;10.020;2024-02-26T05:21:43;-0.50;99.90
5743;DHT22;2896;53.500;10.020;2024-02-26T05:26:41;-0.50;99.90
5743;DHT22;2896;53.500;10.020;2024-02-26T05:31:36;-0.50;99.90
5743;DHT22;2896;53.500;10.020;2024-02-26T05:36:29;-0.50;99.90
5743;DHT22;2896;53.500;10.020;2024-02-26T05:43:53;-0.50;99.90
5743;DHT22;2896;53.500;10.020;2024-02-26T05:46:19;-0.40;99.90
5743;DHT22;2896;53.500;10.020;2024-02-26T05:48:50;-0.40;99.90
5743;DHT22;2896;53.500;10.020;2024-02-26T05:51:17;-0.40;99.90
5743;DHT22;2896;53.500;10.020;2024-02-26T05:58:37;-0.30;99.90
5743;DHT22;2896;53.500;10.020;2024-02-26T06:05:59;-0.30;99.90
5743;DHT22;2896;53.500;10.020;2024-02-26T06:08:26;-0.30;99.90
5743;DHT22;2896;53.500;10.020;2024-02-26T06:10:52;-0.30;99.90
5743;DHT22;2896;53.500;10.020;2024-02-26T06:13:19;-0.20;99.90
5743;DHT22;2896;53.500;10.020;2024-02-26T06:15:46;-0.20;99.90
5743;DHT22;2896;53.500;10.020;2024-02-26T06:18:13;-0.20;99.90
5743;DHT22;2896;53.500;10.020;2024-02-26T06:23:07;-0.10;99.90
5743;DHT22;2896;53.500;10.020;2024-02-26T06:28:02;-0.10;99.90
5743;DHT22;2896;53.500;10.020;2024-02-26T06:32:56;0.00;99.90
5743;DHT22;2896;53.500;10.020;2024-02-26T06:37:50;0.10;99.90
5743;DHT22;2896;53.500;10.020;2024-02-26T06:40:19;0.10;99.90
5743;DHT22;2896;53.500;10.020;2024-02-26T06:42:46;0.10;99.90
5743;DHT22;2896;53.500;10.020;2024-02-26T06:45:12;0.10;99.90
5743;DHT22;2896;53.500;10.020;2024-02-26T06:50:06;0.10;99.90
5743;DHT22;2896;53.500;10.020;2024-02-26T06:52:33;0.30;99.90
5743;DHT22;2896;53.500;10.020;2024-02-26T06:55:00;0.40;99.90
5743;DHT22;2896;53.500;10.020;2024-02-26T06:57:28;0.50;99.90
5743;DHT22;2896;53.500;10.020;2024-02-26T06:59:54;0.50;99.90
5743;DHT22;2896;53.500;10.020;2024-02-26T07:04:48;0.60;99.90
5743;DHT22;2896;53.500;10.020;2024-02-26T07:07:15;0.70;99.90
5743;DHT22;2896;53.500;10.020;2024-02-26T07:09:43;0.80;99.90
5743;DHT22;2896;53.500;10.020;2024-02-26T07:14:38;0.90;99.90
5743;DHT22;2896;53.500;10.020;2024-02-26T07:17:05;1.00;99.90
5743;DHT22;2896;53.500;10.020;2024-02-26T07:19:31;1.10;99.90
5743;DHT22;2896;53.500;10.020;2024-02-26T07:21:58;1.10;99.90
5743;DHT22;2896;53.500;10.020;2024-02-26T07:24:26;1.20;99.90
5743;DHT22;2896;53.500;10.020;2024-02-26T07:26:53;1.20;99.90
5743;DHT22;2896;53.500;10.020;2024-02-26T07:31:49;1.50;99.90
5743;DHT22;2896;53.500;10.020;2024-02-26T07:34:15;1.60;99.90
5743;DHT22;2896;53.500;10.020;2024-02-26T07:39:10;1.80;99.90
5743;DHT22;2896;53.500;10.020;2024-02-26T07:48:59;2.30;99.90
5743;DHT22;2896;53.500;10.020;2024-02-26T07:53:53;2.50;99.90
5743;DHT22;2896;53.500;10.020;2024-02-26T07:56:19;2.50;99.90
5743;DHT22;2896;53.500;10.020;2024-02-26T08:01:13;2.70;99.90
5743;DHT22;2896;53.500;10.020;2024-02-26T08:03:40;2.80;99.90
5743;DHT22;2896;53.500;10.020;2024-02-26T08:06:09;2.90;99.90
5743;DHT22;2896;53.500;10.020;2024-02-26T08:11:03;3.20;99.90
5743;DHT22;2896;53.500;10.020;2024-02-26T08:13:30;3.10;99.90
5743;DHT22;2896;53.500;10.020;2024-02-26T08:15:56;3.20;99.90
5743;DHT22;2896;53.500;10.020;2024-02-26T08:18:24;3.20;99.90
5743;DHT22;2896;53.500;10.020;2024-02-26T08:20:50;3.30;99.90
5743;DHT22;2896;53.500;10.020;2024-02-26T08:23:18;3.40;99.90
5743;DHT22;2896;53.500;10.020;2024-02-26T08:28:12;3.50;99.90
5743;DHT22;2896;53.500;10.020;2024-02-26T08:30:39;3.50;99.90
5743;DHT22;2896;53.500;10.020;2024-02-26T08:33:06;3.60;99.90
5743;DHT22;2896;53.500;10.020;2024-02-26T08:35:32;3.60;99.90
5743;DHT22;2896;53.500;10.020;2024-02-26T08:37:59;3.70;99.90
5743;DHT22;2896;53.500;10.020;2024-02-26T08:40:27;3.80;99.90
5743;DHT22;2896;53.500;10.020;2024-02-26T08:45:20;3.80;99.90
5743;DHT22;2896;53.500;10.020;2024-02-26T08:47:47;4.00;99.90
5743;DHT22;2896;53.500;10.020;2024-02-26T08:50:14;4.00;99.90
5743;DHT22;2896;53.500;10.020;2024-02-26T08:52:41;4.20;99.90
5743;DHT22;2896;53.500;10.020;2024-02-26T08:55:08;4.30;99.90
5743;DHT22;2896;53.500;10.020;2024-02-26T08:57:36;4.30;99.90
5743;DHT22;2896;53.500;10.020;2024-02-26T09:00:05;4.40;99.90
5743;DHT22;2896;53.500;10.020;2024-02-26T09:02:32;4.60;99.90
5743;DHT22;2896;53.500;10.020;2024-02-26T09:04:59;4.70;99.90
5743;DHT22;2896;53.500;10.020;2024-02-26T09:07:25;4.80;99.90
5743;DHT22;2896;53.500;10.020;2024-02-26T09:12:19;4.80;99.90
5743;DHT22;2896;53.500;10.020;2024-02-26T09:14:47;4.80;99.90
5743;DHT22;2896;53.500;10.020;2024-02-26T09:17:14;4.90;99.90
5743;DHT22;2896;53.500;10.020;2024-02-26T09:19:41;4.90;99.90
5743;DHT22;2896;53.500;10.020;2024-02-26T09:24:34;5.20;99.90
5743;DHT22;2896;53.500;10.020;2024-02-26T09:27:01;5.30;99.90
5743;DHT22;2896;53.500;10.020;2024-02-26T09:31:56;5.40;99.90
5743;DHT22;2896;53.500;10.020;2024-02-26T09:36:49;5.60;99.90
5743;DHT22;2896;53.500;10.020;2024-02-26T09:39:16;5.60;99.90
5743;DHT22;2896;53.500;10.020;2024-02-26T09:44:18;5.60;99.90
5743;DHT22;2896;53.500;10.020;2024-02-26T09:46:45;5.80;99.90
5743;DHT22;2896;53.500;10.020;2024-02-26T09:49:14;6.00;99.90
5743;DHT22;2896;53.500;10.020;2024-02-26T09:51:41;5.90;99.90
5743;DHT22;2896;53.500;10.020;2024-02-26T09:54:09;6.00;99.90
5743;DHT22;2896;53.500;10.020;2024-02-26T09:56:37;5.90;99.90
5743;DHT22;2896;53.500;10.020;2024-02-26T09:59:06;6.00;99.90
5743;DHT22;2896;53.500;10.020;2024-02-26T10:01:37;6.20;99.90
5743;DHT22;2896;53.500;10.020;2024-02-26T10:04:05;6.20;99.90
5743;DHT22;2896;53.500;10.020;2024-02-26T10:06:34;6.20;99.90
5743;DHT22;2896;53.500;10.020;2024-02-26T10:09:01;6.30;99.90
5743;DHT22;2896;53.500;10.020;2024-02-26T10:11:32;6.40;99.90
5743;DHT22;2896;53.500;10.020;2024-02-26T10:13:58;6.40;99.90
5743;DHT22;2896;53.500;10.020;2024-02-26T10:16:25;6.30;99.90
5743;DHT22;2896;53.500;10.020;2024-02-26T10:18:53;6.40;99.90
5743;DHT22;2896;53.500;10.020;2024-02-26T10:21:20;6.40;99.90
5743;DHT22;2896;53.500;10.020;2024-02-26T10:23:49;6.50;99.90
5743;DHT22;2896;53.500;10.020;2024-02-26T10:26:17;6.60;99.90
5743;DHT22;2896;53.500;10.020;2024-02-26T10:28:44;6.70;99.90
5743;DHT22;2896;53.500;10.020;2024-02-26T10:31:13;6.70;99.90
5743;DHT22;2896;53.500;10.020;2024-02-26T10:33:42;6.70;99.90
5743;DHT22;2896;53.500;10.020;2024-02-26T10:36:09;6.80;99.90
5743;DHT22;2896;53.500;10.020;2024-02-26T10:38:36;6.90;99.90
5743;DHT22;2896;53.500;10.020;2024-02-26T10:41:05;6.90;99.90
5743;DHT22;2896;53.500;10.020;2024-02-26T10:43:33;6.90;99.90
5743;DHT22;2896;53.500;10.020;2024-02-26T10:46:00;6.90;99.90
5743;DHT22;2896;53.500;10.020;2024-02-26T10:48:27;7.10;99.90
5743;DHT22;2896;53.500;10.020;2024-02-26T10:50:53;7.00;99.90
5743;DHT22;2896;53.500;10.020;2024-02-26T10:53:22;7.00;99.90
5743;DHT22;2896;53.500;10.020;2024-02-26T10:56:03;7.00;99.90
5743;DHT22;2896;53.500;10.020;2024-02-26T10:58:32;7.10;99.90
5743;DHT22;2896;53.500;10.020;2024-02-26T11:00:59;7.10;99.90
5743;DHT22;2896;53.500;10.020;2024-02-26T11:03:26;7.20;99.90
5743;DHT22;2896;53.500;10.020;2024-02-26T11:05:55;7.20;99.90
5743;DHT22;2896;53.500;10.020;2024-02-26T11:08:23;7.20;99.90
5743;DHT22;2896;53.500;10.020;2024-02-26T11:10:53;7.20;99.90
5743;DHT22;2896;53.500;10.020;2024-02-26T11:13:21;7.30;99.90
5743;DHT22;2896;53.500;10.020;2024-02-26T11:15:50;7.30;99.90
5743;DHT22;2896;53.500;10.020;2024-02-26T11:18:19;7.40;99.90
5743;DHT22;2896;53.500;10.020;2024-02-26T11:20:48;7.40;99.90
5743;DHT22;2896;53.500;10.020;2024-02-26T11:23:15;7.40;99.90
5743;DHT22;2896;53.500;10.020;2024-02-26T11:25:42;7.40;99.90
5743;DHT22;2896;53.500;10.020;2024-02-26T11:28:11;7.40;99.90
5743;DHT22;2896;53.500;10.020;2024-02-26T11:30:42;7.40;99.90
5743;DHT22;2896;53.500;10.020;2024-02-26T11:33:12;7.40;96.10
5743;DHT22;2896;53.500;10.020;2024-02-26T11:35:40;7.40;99.90
5743;DHT22;2896;53.500;10.020;2024-02-26T11:38:07;7.40;89.30
5743;DHT22;2896;53.500;10.020;2024-02-26T11:40:38;7.40;99.90
5743;DHT22;2896;53.500;10.020;2024-02-26T11:43:05;7.40;99.90
5743;DHT22;2896;53.500;10.020;2024-02-26T11:45:48;7.40;99.90
5743;DHT22;2896;53.500;10.020;2024-02-26T11:48:20;7.40;99.90
5743;DHT22;2896;53.500;10.020;2024-02-26T11:50:48;7.50;94.60
5743;DHT22;2896;53.500;10.020;2024-02-26T11:53:23;7.40;99.90
5743;DHT22;2896;53.500;10.020;2024-02-26T11:56:22;7.50;99.90
5743;DHT22;2896;53.500;10.020;2024-02-26T11:58:56;7.80;85.00
5743;DHT22;2896;53.500;10.020;2024-02-26T12:01:42;8.00;1.00
5743;DHT22;2896;53.500;10.020;2024-02-26T12:04:13;8.00;1.00
5743;DHT22;2896;53.500;10.020;2024-02-26T12:06:42;8.00;1.00
5743;DHT22;2896;53.500;10.020;2024-02-26T12:09:10;8.20;1.00
5743;DHT22;2896;53.500;10.020;2024-02-26T12:11:37;8.10;1.00
5743;DHT22;2896;53.500;10.020;2024-02-26T12:14:05;8.10;1.00
5743;DHT22;2896;53.500;10.020;2024-02-26T12:16:37;8.20;1.00
5743;DHT22;2896;53.500;10.020;2024-02-26T12:19:05;8.20;1.00
5743;DHT22;2896;53.500;10.020;2024-02-26T12:21:35;8.20;1.00
5743;DHT22;2896;53.500;10.020;2024-02-26T12:24:10;8.40;1.00
5743;DHT22;2896;53.500;10.020;2024-02-26T12:26:38;8.60;1.00
5743;DHT22;2896;53.500;10.020;2024-02-26T12:29:04;8.70;99.90
5743;DHT22;2896;53.500;10.020;2024-02-26T12:31:31;8.80;99.90
5743;DHT22;2896;53.500;10.020;2024-02-26T12:33:59;8.70;99.90
5743;DHT22;2896;53.500;10.020;2024-02-26T12:36:25;8.80;41.00
5743;DHT22;2896;53.500;10.020;2024-02-26T12:38:54;8.70;1.00
5743;DHT22;2896;53.500;10.020;2024-02-26T12:41:21;8.70;1.00
5743;DHT22;2896;53.500;10.020;2024-02-26T12:43:48;8.70;1.00
5743;DHT22;2896;53.500;10.020;2024-02-26T12:46:15;8.50;1.00
5743;DHT22;2896;53.500;10.020;2024-02-26T12:48:43;8.50;1.00
5743;DHT22;2896;53.500;10.020;2024-02-26T12:51:10;8.60;1.00
5743;DHT22;2896;53.500;10.020;2024-02-26T12:53:38;8.70;1.00
5743;DHT22;2896;53.500;10.020;2024-02-26T12:56:07;8.90;99.90
5743;DHT22;2896;53.500;10.020;2024-02-26T12:58:35;9.00;99.90
5743;DHT22;2896;53.500;10.020;2024-02-26T13:01:04;8.90;1.00
5743;DHT22;2896;53.500;10.020;2024-02-26T13:03:31;9.10;99.90
5743;DHT22;2896;53.500;10.020;2024-02-26T13:05:58;9.30;99.90
5743;DHT22;2896;53.500;10.020;2024-02-26T13:08:25;9.20;1.00
5743;DHT22;2896;53.500;10.020;2024-02-26T13:10:51;9.20;99.90
5743;DHT22;2896;53.500;10.020;2024-02-26T13:13:19;9.10;1.00
5743;DHT22;2896;53.500;10.020;2024-02-26T13:15:46;9.30;99.90
5743;DHT22;2896;53.500;10.020;2024-02-26T13:18:14;9.50;99.90
5743;DHT22;2896;53.500;10.020;2024-02-26T13:20:41;9.50;99.90
5743;DHT22;2896;53.500;10.020;2024-02-26T13:23:11;9.30;99.90
5743;DHT22;2896;53.500;10.020;2024-02-26T13:25:37;9.60;1.00
5743;DHT22;2896;53.500;10.020;2024-02-26T13:28:07;9.50;99.90
5743;DHT22;2896;53.500;10.020;2024-02-26T13:30:36;9.50;42.20
5743;DHT22;2896;53.500;10.020;2024-02-26T13:33:09;9.60;1.00
5743;DHT22;2896;53.500;10.020;2024-02-26T13:35:36;9.20;1.00
5743;DHT22;2896;53.500;10.020;2024-02-26T13:38:04;9.20;99.90
5743;DHT22;2896;53.500;10.020;2024-02-26T13:40:31;9.10;99.90
5743;DHT22;2896;53.500;10.020;2024-02-26T13:42:59;9.10;28.40
5743;DHT22;2896;53.500;10.020;2024-02-26T13:45:26;9.30;58.50
5743;DHT22;2896;53.500;10.020;2024-02-26T13:47:54;9.10;1.00
5743;DHT22;2896;53.500;10.020;2024-02-26T13:50:20;9.10;99.90
5743;DHT22;2896;53.500;10.020;2024-02-26T13:52:48;9.00;62.00
5743;DHT22;2896;53.500;10.020;2024-02-26T13:55:18;8.80;99.90
5743;DHT22;2896;53.500;10.020;2024-02-26T13:57:45;8.80;99.90
5743;DHT22;2896;53.500;10.020;2024-02-26T14:00:13;8.90;99.90
5743;DHT22;2896;53.500;10.020;2024-02-26T14:02:39;9.00;99.90
5743;DHT22;2896;53.500;10.020;2024-02-26T14:05:08;9.10;99.90
5743;DHT22;2896;53.500;10.020;2024-02-26T14:07:35;8.90;1.00
5743;DHT22;2896;53.500;10.020;2024-02-26T14:10:01;8.80;1.00
5743;DHT22;2896;53.500;10.020;2024-02-26T14:12:28;8.70;99.90
5743;DHT22;2896;53.500;10.020;2024-02-26T14:14:55;8.80;1.00
5743;DHT22;2896;53.500;10.020;2024-02-26T14:17:22;8.50;99.90
5743;DHT22;2896;53.500;10.020;2024-02-26T14:19:49;8.70;1.00
5743;DHT22;2896;53.500;10.020;2024-02-26T14:22:17;8.70;99.90
5743;DHT22;2896;53.500;10.020;2024-02-26T14:24:43;8.70;1.00
5743;DHT22;2896;53.500;10.020;2024-02-26T14:27:12;8.90;99.90
5743;DHT22;2896;53.500;10.020;2024-02-26T14:29:41;9.20;1.00
5743;DHT22;2896;53.500;10.020;2024-02-26T14:32:09;9.30;1.00
5743;DHT22;2896;53.500;10.020;2024-02-26T14:34:36;9.40;1.00
5743;DHT22;2896;53.500;10.020;2024-02-26T14:37:02;9.50;1.00
5743;DHT22;2896;53.500;10.020;2024-02-26T14:39:31;9.50;99.90
5743;DHT22;2896;53.500;10.020;2024-02-26T14:41:57;9.30;99.90
5743;DHT22;2896;53.500;10.020;2024-02-26T14:44:24;9.20;1.00
5743;DHT22;2896;53.500;10.020;2024-02-26T14:46:51;9.00;1.00
5743;DHT22;2896;53.500;10.020;2024-02-26T14:49:18;8.80;1.00
5743;DHT22;2896;53.500;10.020;2024-02-26T14:51:45;9.00;1.00
5743;DHT22;2896;53.500;10.020;2024-02-26T14:54:12;9.00;99.90
5743;DHT22;2896;53.500;10.020;2024-02-26T14:56:40;8.90;99.90
5743;DHT22;2896;53.500;10.020;2024-02-26T14:59:07;8.60;99.90
5743;DHT22;2896;53.500;10.020;2024-02-26T15:01:33;8.50;1.00
5743;DHT22;2896;53.500;10.020;2024-02-26T15:04:00;8.40;99.90
5743;DHT22;2896;53.500;10.020;2024-02-26T15:06:27;8.40;1.00
5743;DHT22;2896;53.500;10.020;2024-02-26T15:08:53;8.30;1.00
5743;DHT22;2896;53.500;10.020;2024-02-26T15:11:20;8.20;99.90
5743;DHT22;2896;53.500;10.020;2024-02-26T15:13:48;8.10;99.90
5743;DHT22;2896;53.500;10.020;2024-02-26T15:16:17;8.10;99.90
5743;DHT22;2896;53.500;10.020;2024-02-26T15:18:44;7.90;1.00
5743;DHT22;2896;53.500;10.020;2024-02-26T15:21:11;7.80;49.70
5743;DHT22;2896;53.500;10.020;2024-02-26T15:23:38;7.70;99.90
5743;DHT22;2896;53.500;10.020;2024-02-26T15:26:05;7.70;1.00
5743;DHT22;2896;53.500;10.020;2024-02-26T15:28:31;7.60;99.90
5743;DHT22;2896;53.500;10.020;2024-02-26T15:30:59;7.60;99.90
5743;DHT22;2896;53.500;10.020;2024-02-26T15:33:26;7.60;1.00
5743;DHT22;2896;53.500;10.020;2024-02-26T15:35:53;7.40;1.00
5743;DHT22;2896;53.500;10.020;2024-02-26T15:38:19;7.60;1.00
5743;DHT22;2896;53.500;10.020;2024-02-26T15:40:46;7.60;1.00
5743;DHT22;2896;53.500;10.020;2024-02-26T15:43:13;7.60;1.00
5743;DHT22;2896;53.500;10.020;2024-02-26T15:45:40;7.50;1.00
5743;DHT22;2896;53.500;10.020;2024-02-26T15:48:08;7.40;1.00
5743;DHT22;2896;53.500;10.020;2024-02-26T15:50:35;7.40;1.00
5743;DHT22;2896;53.500;10.020;2024-02-26T15:53:03;7.30;1.00
5743;DHT22;2896;53.500;10.020;2024-02-26T15:55:30;7.30;1.00
5743;DHT22;2896;53.500;10.020;2024-02-26T15:57:57;7.20;1.00
5743;DHT22;2896;53.500;10.020;2024-02-26T16:00:23;7.10;1.00
5743;DHT22;2896;53.500;10.020;2024-02-26T16:02:51;6.90;1.00
5743;DHT22;2896;53.500;10.020;2024-02-26T16:05:19;7.00;1.00
5743;DHT22;2896;53.500;10.020;2024-02-26T16:07:48;7.00;1.00
5743;DHT22;2896;53.500;10.020;2024-02-26T16:10:16;6.90;1.00
5743;DHT22;2896;53.500;10.020;2024-02-26T16:12:44;6.90;1.00
5743;DHT22;2896;53.500;10.020;2024-02-26T16:15:14;6.90;1.00
5743;DHT22;2896;53.500;10.020;2024-02-26T16:17:43;6.80;1.00
5743;DHT22;2896;53.500;10.020;2024-02-26T16:20:13;6.70;6.30
5743;DHT22;2896;53.500;10.020;2024-02-26T16:22:42;6.80;14.10
5743;DHT22;2896;53.500;10.020;2024-02-26T16:25:09;6.70;12.90
5743;DHT22;2896;53.500;10.020;2024-02-26T16:27:35;6.60;50.60
5743;DHT22;2896;53.500;10.020;2024-02-26T16:30:03;6.50;36.10
5743;DHT22;2896;53.500;10.020;2024-02-26T16:32:31;8.40;59.30
5743;DHT22;2896;53.500;10.020;2024-02-26T16:34:59;6.40;99.90
5743;DHT22;2896;53.500;10.020;2024-02-26T16:37:26;6.30;99.90
5743;DHT22;2896;53.500;10.020;2024-02-26T16:39:57;6.30;99.90
5743;DHT22;2896;53.500;10.020;2024-02-26T16:42:24;6.30;99.90
5743;DHT22;2896;53.500;10.020;2024-02-26T16:44:51;6.30;99.90
5743;DHT22;2896;53.500;10.020;2024-02-26T16:47:17;6.30;99.90
5743;DHT22;2896;53.500;10.020;2024-02-26T16:49:44;6.20;99.90
5743;DHT22;2896;53.500;10.020;2024-02-26T16:52:11;6.10;99.90
5743;DHT22;2896;53.500;10.020;2024-02-26T16:54:38;6.10;99.90
5743;DHT22;2896;53.500;10.020;2024-02-26T16:57:06;6.10;99.90
5743;DHT22;2896;53.500;10.020;2024-02-26T16:59:35;6.10;99.90
5743;DHT22;2896;53.500;10.020;2024-02-26T17:02:03;6.00;99.90
5743;DHT22;2896;53.500;10.020;2024-02-26T17:04:30;6.00;99.90
5743;DHT22;2896;53.500;10.020;2024-02-26T17:06:56;5.90;99.90
5743;DHT22;2896;53.500;10.020;2024-02-26T17:09:23;5.80;99.90
5743;DHT22;2896;53.500;10.020;2024-02-26T17:11:50;5.90;99.90
5743;DHT22;2896;53.500;10.020;2024-02-26T17:14:20;5.80;99.90
5743;DHT22;2896;53.500;10.020;2024-02-26T17:16:47;5.80;99.90
5743;DHT22;2896;53.500;10.020;2024-02-26T17:19:14;5.80;99.90
5743;DHT22;2896;53.500;10.020;2024-02-26T17:21:41;5.80;99.90
5743;DHT22;2896;53.500;10.020;2024-02-26T17:24:07;5.70;99.90
5743;DHT22;2896;53.500;10.020;2024-02-26T17:26:34;5.60;99.90
5743;DHT22;2896;53.500;10.020;2024-02-26T17:29:02;5.50;99.90
5743;DHT22;2896;53.500;10.020;2024-02-26T17:31:30;5.40;99.90
5743;DHT22;2896;53.500;10.020;2024-02-26T17:34:00;5.40;99.90
5743;DHT22;2896;53.500;10.020;2024-02-26T17:36:26;5.40;99.90
5743;DHT22;2896;53.500;10.020;2024-02-26T17:38:53;5.60;99.90
5743;DHT22;2896;53.500;10.020;2024-02-26T17:41:19;5.30;99.90
5743;DHT22;2896;53.500;10.020;2024-02-26T17:43:46;5.30;99.90
5743;DHT22;2896;53.500;10.020;2024-02-26T17:46:13;5.20;99.90
5743;DHT22;2896;53.500;10.020;2024-02-26T17:48:41;5.20;99.90
5743;DHT22;2896;53.500;10.020;2024-02-26T17:51:09;5.20;99.90
5743;DHT22;2896;53.500;10.020;2024-02-26T17:53:36;5.20;99.90
5743;DHT22;2896;53.500;10.020;2024-02-26T17:56:04;5.20;99.90
5743;DHT22;2896;53.500;10.020;2024-02-26T17:58:32;5.20;99.90
5743;DHT22;2896;53.500;10.020;2024-02-26T18:00:59;5.20;99.90
5743;DHT22;2896;53.500;10.020;2024-02-26T18:03:26;5.10;99.90
5743;DHT22;2896;53.500;10.020;2024-02-26T18:05:54;5.40;99.90
5743;DHT22;2896;53.500;10.020;2024-02-26T18:08:20;5.10;99.90
5743;DHT22;2896;53.500;10.020;2024-02-26T18:10:47;5.10;99.90
5743;DHT22;2896;53.500;10.020;2024-02-26T18:13:14;5.20;99.90
5743;DHT22;2896;53.500;10.020;2024-02-26T18:15:41;5.00;99.90
5743;DHT22;2896;53.500;10.020;2024-02-26T18:18:07;4.90;99.90
5743;DHT22;2896;53.500;10.020;2024-02-26T18:20:34;5.00;99.90
5743;DHT22;2896;53.500;10.020;2024-02-26T18:23:02;5.00;99.90
5743;DHT22;2896;53.500;10.020;2024-02-26T18:25:29;5.00;99.90
5743;DHT22;2896;53.500;10.020;2024-02-26T18:27:56;5.00;99.90
5743;DHT22;2896;53.500;10.020;2024-02-26T18:30:23;5.00;99.90
5743;DHT22;2896;53.500;10.020;2024-02-26T18:32:49;5.00;99.90
5743;DHT22;2896;53.500;10.020;2024-02-26T18:35:16;4.90;99.90